This is the latest recevied weather packets stored in our database for station/object KC1IUC-13. If no packets are shown the sender has not sent any weather packets the latest 10 day(s).
| Time | Temp. | Humidity | Pressure | Rain* | Wind** | Luminosity | Snow |
|---|---|---|---|---|---|---|---|
| 1778018944 | 22.78° C | 54% | 1004.6 hPa | 0 mm | - | 30 W/m² | - |
| 1778018404 | 22.78° C | 53% | 1004.6 hPa | 0 mm | - | 35 W/m² | - |
| 1778018044 | 22.78° C | 53% | 1004.6 hPa | 0 mm | - | 37 W/m² | - |
| 1778017504 | 23.33° C | 52% | 1004.2 hPa | 0 mm | - | 39 W/m² | - |
| 1778016964 | 23.33° C | 52% | 1004.2 hPa | 0 mm | - | 43 W/m² | - |
| 1778016424 | 23.89° C | 51% | 1003.9 hPa | 0 mm | - | 46 W/m² | - |
| 1778015884 | 23.89° C | 51% | 1003.9 hPa | 0 mm | - | 56 W/m² | - |
| 1778015344 | 24.44° C | 50% | 1004.2 hPa | 0 mm | - | 64 W/m² | - |
| 1778014804 | 24.44° C | 50% | 1003.9 hPa | 0 mm | - | 84 W/m² | - |
| 1778014444 | 25° C | 50% | 1003.9 hPa | 0 mm | - | 94 W/m² | - |
| 1778013904 | 25° C | 49% | 1003.9 hPa | 0 mm | - | 84 W/m² | - |
| 1778013364 | 25° C | 49% | 1003.9 hPa | 0 mm | - | 88 W/m² | - |
| 1778012824 | 25° C | 48% | 1004.2 hPa | 0 mm | - | 97 W/m² | - |
| 1778012284 | 26.11° C | 47% | 1003.9 hPa | 0 mm | - | 359 W/m² | - |
| 1778011744 | 26.67° C | 47% | 1004.2 hPa | 0 mm | - | 494 W/m² | - |
| 1778011204 | 26.67° C | 46% | 1004.6 hPa | 0 mm | - | 413 W/m² | - |
| 1778010844 | 27.22° C | 46% | 1004.2 hPa | 0 mm | - | 475 W/m² | - |
| 1778010304 | 27.78° C | 45% | 1004.2 hPa | 0 mm | - | 527 W/m² | - |
| 1778009764 | 27.78° C | 45% | 1004.6 hPa | 0 mm | - | 536 W/m² | - |
| 1778009224 | 28.33° C | 45% | 1004.2 hPa | 0 mm | - | 580 W/m² | - |
| 1778008684 | 28.33° C | 45% | 1004.2 hPa | 0 mm | - | 553 W/m² | - |
| 1778008144 | 28.33° C | 46% | 1004.6 hPa | 0 mm | - | 543 W/m² | - |
| 1778007604 | 28.89° C | 46% | 1004.6 hPa | 0 mm | - | 545 W/m² | - |
| 1778007244 | 28.33° C | 46% | 1004.6 hPa | 0 mm | - | 583 W/m² | - |
| 1778006704 | 28.89° C | 46% | 1004.6 hPa | 0 mm | - | 548 W/m² | - |
* Rain latest hour (hover to see other rain measurements)
** Current wind speed in m/s (hover to see current wind gust speed)